Bridgeton, North Carolina
Current Conditions -  °F | °C
As of 6:54 AM on Tuesday 27 Jan 2015 (Local Time) from KEWN Reporting Station
Overcast Overcast  
Wind Chill: 31°   Ceiling: 2200
Heat Index: 39°   Visibility: 10mi
Dew Point: 29°   Wind: 14mph
Humidity: 67%   Direction: 340°NNW
Pressure: 29.74"   Gusts: 21mph
Location:  35.12°N, 77.02°W
Report Text: KEWN 271154Z 34012G18KT 10SM OVC022 04/M02 A2974 RMK AO2 SLP072 70003 T00391017 10078 20039 53027
Loading
Personal Weather Stations






























Interactive Weather Map New forecast layout! Learn more

10-Day Weather Forecast

Advertisements
Track Severe Weather on mobile